KBRL/BRL METAR and TAF weather

Enter ICAO airport designator
Station Type Date Time Source
KBRL METAR 2020/09/27 03:53 UTC NOAA

KBRL 270353Z AUTO 19012KT 10SM CLR 23/16 A2969 RMK AO2 SLP049 T02280156


Station Type Date Time Source
KBRL Decoded METAR 2020/09/27 03:53 UTC NOAA

BURLINGTON REGIONAL AIRPORT, IA, United States (KBRL) 40-46N 91-08W 211M
Sep 26, 2020 - 11:53 PM EDT / 2020.09.27 0353 UTC
Wind: from the S (190 degrees) at 14 MPH (12 KT):0
Visibility: 10 mile(s):0
Sky conditions: clear
Temperature: 73.0 F (22.8 C)
Dew Point: 60.1 F (15.6 C)
Relative Humidity: 63%
Pressure (altimeter): 29.69 in. Hg (1005 hPa)
ob: KBRL 270353Z AUTO 19012KT 10SM CLR 23/16 A2969 RMK AO2 SLP049 T02280156
cycle: 4

Station Type Date Time Source
KBRL TAF 2020/09/26 18:22 UTC NOAA

TAF KBRL 261720Z 2618/2718 20015G24KT P6SM BKN250
FM270000 19012KT P6SM BKN250 WS012/23045KT
FM271000 22010KT P6SM BKN150
FM271300 31006KT P6SM OVC100

Example: see airport list